createdAt,value
2018-11-01T00:01:36.214Z,5.40
2018-11-01T00:04:07.269Z,5.63
2018-11-01T00:06:38.261Z,5.70
2018-11-01T00:09:10.777Z,5.57
2018-11-01T00:11:41.778Z,5.40
2018-11-01T00:14:12.910Z,5.10
2018-11-01T00:16:44.155Z,5.37
2018-11-01T00:19:15.176Z,5.90
2018-11-01T00:21:46.303Z,5.70
2018-11-01T00:24:17.296Z,5.47
2018-11-01T00:26:48.333Z,5.70
2018-11-01T00:29:19.325Z,5.03
2018-11-01T00:31:50.335Z,6.00
2018-11-01T00:34:21.312Z,5.80
2018-11-01T00:36:52.312Z,5.30
2018-11-01T00:39:23.357Z,5.10
2018-11-01T00:41:54.788Z,5.17
2018-11-01T00:44:25.865Z,5.40
2018-11-01T00:46:57.246Z,5.40
2018-11-01T00:49:28.552Z,5.10
2018-11-01T00:51:59.611Z,5.53
2018-11-01T00:54:30.616Z,5.40
2018-11-01T00:57:01.693Z,5.37
2018-11-01T00:59:33.046Z,5.70
2018-11-01T01:02:04.225Z,5.70
2018-11-01T01:04:35.426Z,5.60
2018-11-01T01:07:06.543Z,6.30
2018-11-01T01:09:37.462Z,6.70
2018-11-01T01:12:09.059Z,5.77
2018-11-01T01:14:40.089Z,6.40
2018-11-01T01:17:11.057Z,5.80
2018-11-01T01:19:42.159Z,5.97
2018-11-01T01:22:13.737Z,5.70
2018-11-01T01:24:45.294Z,6.30
2018-11-01T01:27:16.632Z,6.10
2018-11-01T01:29:48.489Z,6.30
2018-11-01T01:32:19.612Z,5.67
2018-11-01T01:34:50.796Z,6.23
2018-11-01T01:37:21.962Z,5.67
2018-11-01T01:39:53.427Z,5.70
2018-11-01T01:42:36.586Z,6.20
2018-11-01T01:45:09.327Z,6.20
2018-11-01T01:47:40.724Z,5.70
2018-11-01T01:50:14.578Z,5.70
2018-11-01T01:52:45.949Z,5.50
2018-11-01T01:55:17.360Z,5.90
2018-11-01T01:57:48.348Z,5.70
2018-11-01T02:00:20.983Z,5.90
2018-11-01T02:02:53.434Z,5.77
2018-11-01T02:05:24.944Z,6.30
2018-11-01T02:07:56.413Z,5.57
2018-11-01T02:10:27.420Z,5.97
2018-11-01T02:12:58.452Z,6.10
2018-11-01T02:15:29.401Z,6.00
2018-11-01T02:18:00.471Z,6.03
2018-11-01T02:20:32.389Z,5.30
2018-11-01T02:23:03.436Z,5.80
2018-11-01T02:25:34.528Z,5.70
2018-11-01T02:28:18.827Z,6.17
2018-11-01T02:30:50.210Z,5.80
2018-11-01T02:33:21.287Z,5.93
2018-11-01T02:35:52.694Z,5.90
2018-11-01T02:38:24.121Z,6.00
2018-11-01T02:40:55.306Z,5.80
2018-11-01T02:43:26.649Z,5.77
2018-11-01T02:46:02.224Z,6.13
2018-11-01T02:48:33.499Z,6.23
2018-11-01T02:51:04.572Z,6.03
2018-11-01T02:53:36.017Z,6.30
2018-11-01T02:56:07.324Z,6.57
2018-11-01T02:58:38.391Z,6.90
2018-11-01T03:01:09.443Z,6.27
2018-11-01T03:03:40.527Z,6.53
2018-11-01T03:06:11.479Z,6.33
2018-11-01T03:08:42.717Z,6.20
2018-11-01T03:11:13.834Z,6.07
2018-11-01T03:13:45.346Z,6.27
2018-11-01T03:16:16.335Z,6.13
2018-11-01T03:18:47.969Z,6.37
2018-11-01T03:21:19.340Z,6.10
2018-11-01T03:23:50.389Z,5.70
2018-11-01T03:26:21.663Z,6.03
2018-11-01T03:28:52.662Z,6.27
2018-11-01T03:31:24.173Z,6.27
2018-11-01T03:33:55.285Z,5.70
2018-11-01T03:36:26.805Z,5.70
2018-11-01T03:38:58.281Z,5.50
2018-11-01T03:41:29.136Z,5.53
2018-11-01T03:44:00.899Z,5.50
2018-11-01T03:46:32.603Z,5.53
2018-11-01T03:49:03.763Z,5.30
2018-11-01T03:51:34.939Z,5.10
2018-11-01T03:54:06.725Z,5.47
2018-11-01T03:56:38.913Z,5.00
2018-11-01T03:59:10.040Z,5.37
2018-11-01T04:01:41.508Z,4.73
2018-11-01T04:04:12.640Z,4.67
2018-11-01T04:06:43.725Z,5.00
2018-11-01T04:09:15.559Z,5.00
2018-11-01T04:11:46.487Z,4.60
2018-11-01T04:14:17.591Z,4.83
2018-11-01T04:16:48.657Z,4.33
2018-11-01T04:19:19.679Z,4.73
2018-11-01T04:21:54.325Z,5.17
2018-11-01T04:24:25.682Z,4.73
2018-11-01T04:26:56.857Z,5.07
2018-11-01T04:29:27.971Z,4.57
2018-11-01T04:31:59.317Z,4.53
2018-11-01T04:34:30.861Z,4.20
2018-11-01T04:37:01.803Z,4.70
2018-11-01T04:39:32.743Z,4.40
2018-11-01T04:42:03.949Z,4.07
2018-11-01T04:44:35.221Z,4.37
2018-11-01T04:47:06.275Z,4.17
2018-11-01T04:49:37.605Z,4.23
2018-11-01T04:52:09.031Z,4.10
2018-11-01T04:54:40.137Z,3.80
2018-11-01T04:57:11.122Z,4.30
2018-11-01T04:59:42.179Z,4.00
2018-11-01T05:02:13.187Z,4.40
2018-11-01T05:04:44.150Z,3.83
2018-11-01T05:07:15.156Z,4.37
2018-11-01T05:09:47.192Z,4.20
2018-11-01T05:12:18.200Z,4.00
2018-11-01T05:14:49.307Z,3.87
2018-11-01T05:17:20.327Z,3.83
2018-11-01T05:19:51.487Z,3.67
2018-11-01T05:22:22.530Z,3.20
2018-11-01T05:24:53.647Z,2.93
2018-11-01T05:27:24.626Z,3.20
2018-11-01T05:29:55.575Z,3.50
2018-11-01T05:32:26.615Z,3.30
2018-11-01T05:34:58.318Z,3.40
2018-11-01T05:37:29.413Z,3.00
2018-11-01T05:40:00.377Z,3.60
2018-11-01T05:42:32.505Z,3.07
2018-11-01T05:45:03.992Z,2.93
2018-11-01T05:47:34.968Z,3.30
2018-11-01T05:50:06.144Z,3.23
2018-11-01T05:52:37.220Z,3.70
2018-11-01T05:55:09.019Z,3.20
2018-11-01T05:57:39.958Z,3.00
2018-11-01T06:00:15.207Z,3.53
2018-11-01T06:02:50.148Z,3.37
2018-11-01T06:05:21.020Z,3.33
2018-11-01T06:08:11.912Z,3.20
2018-11-01T06:10:42.803Z,2.90
2018-11-01T06:13:13.660Z,3.30
2018-11-01T06:15:44.540Z,3.03
2018-11-01T06:18:15.420Z,3.20
2018-11-01T06:20:46.371Z,2.90
2018-11-01T06:23:17.224Z,2.97
2018-11-01T06:25:48.280Z,2.97
2018-11-01T06:28:19.184Z,2.67
2018-11-01T06:30:50.343Z,2.57
2018-11-01T06:33:21.530Z,2.60
2018-11-01T06:35:54.307Z,2.97
2018-11-01T06:38:25.235Z,3.00
2018-11-01T06:40:56.453Z,3.13
2018-11-01T06:43:27.931Z,2.80
2018-11-01T06:45:58.820Z,2.97
2018-11-01T06:48:29.731Z,3.00
2018-11-01T06:51:00.625Z,3.17
2018-11-01T06:53:31.534Z,3.00
2018-11-01T06:56:02.704Z,3.20
2018-11-01T06:58:34.313Z,2.70
2018-11-01T07:01:05.029Z,2.93
2018-11-01T07:03:35.952Z,2.83
2018-11-01T07:06:07.033Z,2.50
2018-11-01T07:08:38.268Z,2.27
2018-11-01T07:11:09.152Z,2.60
2018-11-01T07:13:40.044Z,2.20
2018-11-01T07:16:10.946Z,2.10
2018-11-01T07:18:41.847Z,2.30
2018-11-01T07:21:12.744Z,2.40
2018-11-01T07:23:43.658Z,2.40
2018-11-01T07:26:14.722Z,2.00
2018-11-01T07:28:45.774Z,2.50
2018-11-01T07:31:17.078Z,1.90
2018-11-01T07:33:47.980Z,2.13
2018-11-01T07:36:19.066Z,2.27
2018-11-01T07:38:50.516Z,2.30
2018-11-01T07:41:21.748Z,2.43
2018-11-01T07:43:52.694Z,2.20
2018-11-01T07:46:23.579Z,2.30
2018-11-01T07:48:54.744Z,2.33
2018-11-01T07:51:25.909Z,2.20
2018-11-01T07:53:56.873Z,2.47
2018-11-01T07:56:27.756Z,2.30
2018-11-01T07:58:58.807Z,2.20
2018-11-01T08:01:29.746Z,2.40
2018-11-01T08:04:01.284Z,2.00
2018-11-01T08:06:32.281Z,2.33
2018-11-01T08:09:05.024Z,2.10
2018-11-01T08:11:36.548Z,2.27
2018-11-01T08:14:08.169Z,2.30
2018-11-01T08:16:39.426Z,2.00
2018-11-01T08:19:10.950Z,2.27
2018-11-01T08:21:42.134Z,2.10
2018-11-01T08:24:13.275Z,2.33
2018-11-01T08:26:44.564Z,2.23
2018-11-01T08:29:15.554Z,2.50
2018-11-01T08:31:46.449Z,2.23
2018-11-01T08:34:17.350Z,2.50
2018-11-01T08:36:48.258Z,2.30
2018-11-01T08:39:19.567Z,2.20
2018-11-01T08:41:50.610Z,2.27
2018-11-01T08:44:21.525Z,2.30
2018-11-01T08:46:52.426Z,2.13
2018-11-01T08:49:23.422Z,2.23
2018-11-01T08:51:54.324Z,2.20
2018-11-01T08:54:25.656Z,2.40
2018-11-01T08:56:56.583Z,2.50
2018-11-01T08:59:27.857Z,2.50
2018-11-01T09:01:59.080Z,2.30
2018-11-01T09:04:30.351Z,2.27
2018-11-01T09:07:01.566Z,2.10
2018-11-01T09:09:32.509Z,2.00
2018-11-01T09:12:03.785Z,2.20
2018-11-01T09:14:35.664Z,2.10
2018-11-01T09:17:06.728Z,2.33
2018-11-01T09:19:38.394Z,2.40
2018-11-01T09:22:09.936Z,2.53
2018-11-01T09:24:40.927Z,2.83
2018-11-01T09:27:11.865Z,2.30
2018-11-01T09:29:43.173Z,2.27
2018-11-01T09:32:14.107Z,2.43
2018-11-01T09:34:45.556Z,1.90
2018-11-01T09:37:16.809Z,2.10
2018-11-01T09:39:48.146Z,2.13
2018-11-01T09:42:19.166Z,2.17
2018-11-01T09:44:50.171Z,2.20
2018-11-01T09:47:21.492Z,2.20
2018-11-01T09:49:52.445Z,2.30
2018-11-01T09:52:24.005Z,2.30
2018-11-01T09:54:54.996Z,1.90
2018-11-01T09:57:26.251Z,2.07
2018-11-01T09:59:57.157Z,2.10
2018-11-01T10:02:28.808Z,2.10
2018-11-01T10:04:59.728Z,1.90
2018-11-01T10:07:31.039Z,2.30
2018-11-01T10:10:01.958Z,2.03
2018-11-01T10:12:33.165Z,1.87
2018-11-01T10:15:04.102Z,2.10
2018-11-01T10:17:35.800Z,2.07
2018-11-01T10:20:08.400Z,2.27
2018-11-01T10:22:39.736Z,2.30
2018-11-01T10:25:12.774Z,2.00
2018-11-01T10:27:43.750Z,2.23
2018-11-01T10:30:17.020Z,2.10
2018-11-01T10:32:48.726Z,2.50
2018-11-01T10:35:20.255Z,2.40
2018-11-01T10:37:51.109Z,2.30
2018-11-01T10:40:22.661Z,2.40
2018-11-01T10:42:54.126Z,2.30
2018-11-01T10:45:25.334Z,2.20
2018-11-01T10:47:56.341Z,2.00
2018-11-01T10:50:27.313Z,2.30
2018-11-01T10:52:58.619Z,2.20
2018-11-01T10:55:29.637Z,2.33
2018-11-01T10:58:01.163Z,3.00
2018-11-01T11:00:49.520Z,2.47
2018-11-01T11:03:20.732Z,2.10
2018-11-01T11:05:51.863Z,2.27
2018-11-01T11:08:23.165Z,2.40
2018-11-01T11:10:54.523Z,2.10
2018-11-01T11:13:25.747Z,2.17
2018-11-01T11:15:57.174Z,2.00
2018-11-01T11:18:28.598Z,2.07
2018-11-01T11:21:00.126Z,1.90
2018-11-01T11:23:30.736Z,2.10
2018-11-01T11:26:02.021Z,1.93
2018-11-01T11:28:33.523Z,2.07
2018-11-01T11:31:04.997Z,1.97
2018-11-01T11:33:36.389Z,2.20
2018-11-01T11:36:07.838Z,1.73
2018-11-01T11:38:38.745Z,1.90
2018-11-01T11:41:09.805Z,1.90
2018-11-01T11:43:40.766Z,2.07
2018-11-01T11:46:12.144Z,2.50
2018-11-01T11:48:43.210Z,2.10
2018-11-01T11:51:14.310Z,1.90
2018-11-01T11:53:45.621Z,2.43
2018-11-01T11:56:17.462Z,2.40
2018-11-01T11:58:48.440Z,2.20
2018-11-01T12:01:19.411Z,2.00
2018-11-01T12:03:50.373Z,2.20
2018-11-01T12:06:21.790Z,2.13
2018-11-01T12:08:52.612Z,2.17
2018-11-01T12:11:23.668Z,2.30
2018-11-01T12:13:54.709Z,2.37
2018-11-01T12:16:26.057Z,2.43
2018-11-01T12:18:57.854Z,2.70
2018-11-01T12:21:28.973Z,2.30
2018-11-01T12:24:00.549Z,2.30
2018-11-01T12:26:31.906Z,2.43
2018-11-01T12:29:03.183Z,2.53
2018-11-01T12:31:35.477Z,3.00
2018-11-01T12:34:07.045Z,2.90
2018-11-01T12:36:38.237Z,3.17
2018-11-01T12:39:10.170Z,2.20
2018-11-01T12:41:41.258Z,2.80
2018-11-01T12:44:12.265Z,2.70
2018-11-01T12:46:43.305Z,2.57
2018-11-01T12:49:14.907Z,2.10
2018-11-01T12:51:46.202Z,2.57
2018-11-01T12:54:17.506Z,2.17
2018-11-01T12:56:48.485Z,2.30
2018-11-01T12:59:19.418Z,2.20
2018-11-01T13:01:50.426Z,2.57
2018-11-01T13:04:21.473Z,2.03
2018-11-01T13:06:52.453Z,2.60
2018-11-01T13:09:23.421Z,2.57
2018-11-01T13:11:54.401Z,2.50
2018-11-01T13:14:26.022Z,2.20
2018-11-01T13:16:57.780Z,2.63
2018-11-01T13:19:29.646Z,2.57
2018-11-01T13:22:00.682Z,2.90
2018-11-01T13:24:31.950Z,2.57
2018-11-01T13:27:03.383Z,3.43
2018-11-01T13:29:34.391Z,3.07
2018-11-01T13:32:05.444Z,2.77
2018-11-01T13:34:36.769Z,3.03
2018-11-01T13:37:07.717Z,3.40
2018-11-01T13:39:39.278Z,3.17
2018-11-01T13:42:10.177Z,3.33
2018-11-01T13:44:41.396Z,4.17
2018-11-01T13:47:12.434Z,3.90
2018-11-01T13:49:43.644Z,4.60
2018-11-01T13:52:14.721Z,4.20
2018-11-01T13:54:45.827Z,4.33
2018-11-01T13:57:16.967Z,3.13
2018-11-01T13:59:48.026Z,3.20
2018-11-01T14:02:19.100Z,3.00
2018-11-01T14:04:50.178Z,3.27
2018-11-01T14:07:21.220Z,3.10
2018-11-01T14:09:52.386Z,3.00
2018-11-01T14:12:23.530Z,2.83
2018-11-01T14:14:54.871Z,2.80
2018-11-01T14:17:25.580Z,2.47
2018-11-01T14:19:56.585Z,3.30
2018-11-01T14:22:27.705Z,3.00
2018-11-01T14:24:58.833Z,4.07
2018-11-01T14:27:29.901Z,3.43
2018-11-01T14:30:00.868Z,4.33
2018-11-01T14:32:32.219Z,4.03
2018-11-01T14:35:04.028Z,3.43
2018-11-01T14:37:35.278Z,3.83
2018-11-01T14:40:08.141Z,4.03
2018-11-01T14:42:39.397Z,3.73
2018-11-01T14:45:10.887Z,3.57
2018-11-01T14:47:42.001Z,3.27
2018-11-01T14:50:13.296Z,3.77
2018-11-01T14:52:44.570Z,3.30
2018-11-01T14:55:16.483Z,3.43
2018-11-01T14:57:47.700Z,3.93
2018-11-01T15:00:17.312Z,3.33
2018-11-01T15:02:48.384Z,3.40
2018-11-01T15:05:19.689Z,3.63
2018-11-01T15:07:50.987Z,3.30
2018-11-01T15:10:21.909Z,3.33
2018-11-01T15:12:53.396Z,3.60
2018-11-01T15:15:24.341Z,3.30
2018-11-01T15:17:55.736Z,3.77
2018-11-01T15:20:26.736Z,2.90
2018-11-01T15:22:58.013Z,3.27
2018-11-01T15:25:29.326Z,3.10
2018-11-01T15:28:00.646Z,3.60
2018-11-01T15:30:31.695Z,4.10
2018-11-01T15:33:02.738Z,4.00
2018-11-01T15:35:33.689Z,3.87
2018-11-01T15:38:05.096Z,3.67
2018-11-01T15:40:36.193Z,4.27
2018-11-01T15:43:07.201Z,3.90
2018-11-01T15:45:38.673Z,3.60
2018-11-01T15:48:09.710Z,3.37
2018-11-01T15:50:40.650Z,3.90
2018-11-01T15:53:11.700Z,4.60
2018-11-01T15:55:42.785Z,5.33
2018-11-01T15:58:14.085Z,5.10
2018-11-01T16:00:45.095Z,4.60
2018-11-01T16:03:16.537Z,4.50
2018-11-01T16:05:47.760Z,3.70
2018-11-01T16:08:18.905Z,3.80
2018-11-01T16:10:50.935Z,3.80
2018-11-01T16:13:22.514Z,3.33
2018-11-01T16:15:53.920Z,3.30
2018-11-01T16:18:25.452Z,3.57
2018-11-01T16:20:56.918Z,3.40
2018-11-01T16:23:28.074Z,3.43
2018-11-01T16:25:59.080Z,3.90
2018-11-01T16:28:30.249Z,3.47
2018-11-01T16:31:01.253Z,3.63
2018-11-01T16:33:33.117Z,3.60
2018-11-01T16:36:04.470Z,4.60
2018-11-01T16:38:35.667Z,3.80
2018-11-01T16:41:06.983Z,9.80
2018-11-01T16:43:38.161Z,28.63
2018-11-01T16:46:09.317Z,13.07
2018-11-01T16:48:40.619Z,10.37
2018-11-01T16:51:11.818Z,6.00
2018-11-01T16:53:42.730Z,5.33
2018-11-01T16:56:13.845Z,4.70
2018-11-01T16:58:44.870Z,5.07
2018-11-01T17:01:16.440Z,5.67
2018-11-01T17:03:47.570Z,6.27
2018-11-01T17:06:18.699Z,4.50
2018-11-01T17:08:49.773Z,4.60
2018-11-01T17:11:20.899Z,4.10
2018-11-01T17:13:51.882Z,4.30
2018-11-01T17:16:23.275Z,4.70
2018-11-01T17:18:54.808Z,5.07
2018-11-01T17:21:25.984Z,4.87
2018-11-01T17:23:57.296Z,4.63
2018-11-01T17:26:28.863Z,5.40
2018-11-01T17:28:59.889Z,6.30
2018-11-01T17:31:30.845Z,8.07
2018-11-01T17:34:01.984Z,9.73
2018-11-01T17:36:32.863Z,7.53
2018-11-01T17:39:04.614Z,8.53
2018-11-01T17:41:35.518Z,7.57
2018-11-01T17:44:06.524Z,6.40
2018-11-01T17:46:37.456Z,5.93
2018-11-01T17:49:09.410Z,5.90
2018-11-01T17:51:40.567Z,5.53
2018-11-01T17:54:17.928Z,6.23
2018-11-01T17:56:48.857Z,8.20
2018-11-01T17:59:19.793Z,11.87
2018-11-01T18:01:51.230Z,8.27
2018-11-01T18:04:22.105Z,9.57
2018-11-01T18:06:53.090Z,10.27
2018-11-01T18:09:24.008Z,9.43
2018-11-01T18:11:54.943Z,8.53
2018-11-01T18:14:25.919Z,11.20
2018-11-01T18:16:56.797Z,9.47
2018-11-01T18:19:27.787Z,15.97
2018-11-01T18:21:58.788Z,14.53
2018-11-01T18:24:29.691Z,13.57
2018-11-01T18:27:00.638Z,13.03
2018-11-01T18:29:31.573Z,18.47
2018-11-01T18:32:03.104Z,18.70
2018-11-01T18:34:34.092Z,16.83
2018-11-01T18:37:05.558Z,14.50
2018-11-01T18:39:36.628Z,11.53
2018-11-01T18:42:07.930Z,9.60
2018-11-01T18:44:39.348Z,8.87
2018-11-01T18:47:10.352Z,9.60
2018-11-01T18:49:41.305Z,10.27
2018-11-01T18:52:12.300Z,9.00
2018-11-01T18:54:43.449Z,8.13
2018-11-01T18:57:14.460Z,7.50
2018-11-01T18:59:45.389Z,7.90
2018-11-01T19:02:16.468Z,7.40
2018-11-01T19:04:47.439Z,7.87
2018-11-01T19:07:18.387Z,6.87
2018-11-01T19:09:49.329Z,7.70
2018-11-01T19:12:20.297Z,16.47
2018-11-01T19:14:51.208Z,20.33
2018-11-01T19:17:22.170Z,15.63
2018-11-01T19:19:53.377Z,13.30
2018-11-01T19:22:24.278Z,9.63
2018-11-01T19:24:55.201Z,9.10
2018-11-01T19:27:26.495Z,8.67
2018-11-01T19:29:57.392Z,8.63
2018-11-01T19:32:28.579Z,8.07
2018-11-01T19:34:59.532Z,9.93
2018-11-01T19:37:30.957Z,11.33
2018-11-01T19:40:02.088Z,8.87
2018-11-01T19:42:32.889Z,7.23
2018-11-01T19:45:03.846Z,9.73
2018-11-01T19:47:35.067Z,7.90
2018-11-01T19:50:06.859Z,7.53
2018-11-01T19:52:37.910Z,6.97
2018-11-01T19:55:08.816Z,9.57
2018-11-01T19:57:40.282Z,10.73
2018-11-01T20:00:16.043Z,9.20
2018-11-01T20:02:46.300Z,9.70
2018-11-01T20:05:17.186Z,8.93
2018-11-01T20:07:48.410Z,8.30
2018-11-01T20:10:19.499Z,8.23
2018-11-01T20:12:50.702Z,8.07
2018-11-01T20:15:21.675Z,8.40
2018-11-01T20:17:52.627Z,8.50
2018-11-01T20:20:24.306Z,8.23
2018-11-01T20:22:56.013Z,7.97
2018-11-01T20:25:27.062Z,7.20
2018-11-01T20:27:57.972Z,7.03
2018-11-01T20:30:29.230Z,6.60
2018-11-01T20:33:00.134Z,7.10
2018-11-01T20:35:31.126Z,6.00
2018-11-01T20:38:02.462Z,6.97
2018-11-01T20:40:33.525Z,6.37
2018-11-01T20:43:04.480Z,6.43
2018-11-01T20:45:35.384Z,6.07
2018-11-01T20:48:06.818Z,6.10
2018-11-01T20:50:37.758Z,6.23
2018-11-01T20:53:11.631Z,6.07
2018-11-01T20:55:42.701Z,6.07
2018-11-01T20:58:13.792Z,6.10
2018-11-01T21:00:45.052Z,6.30
2018-11-01T21:03:15.950Z,5.30
2018-11-01T21:05:47.185Z,5.47
2018-11-01T21:08:18.555Z,6.03
2018-11-01T21:10:49.942Z,6.00
2018-11-01T21:13:20.846Z,5.87
2018-11-01T21:15:51.801Z,5.17
2018-11-01T21:18:22.903Z,5.07
2018-11-01T21:20:54.560Z,5.47
2018-11-01T21:23:25.500Z,5.10
2018-11-01T21:25:56.821Z,5.47
2018-11-01T21:28:28.008Z,7.27
2018-11-01T21:30:59.471Z,5.80
2018-11-01T21:33:30.646Z,5.37
2018-11-01T21:36:01.718Z,5.47
2018-11-01T21:38:32.815Z,5.77
2018-11-01T21:41:03.786Z,5.17
2018-11-01T21:43:34.698Z,5.40
2018-11-01T21:46:05.748Z,4.93
2018-11-01T21:48:37.439Z,5.00
2018-11-01T21:51:08.806Z,4.77
2018-11-01T21:53:39.783Z,5.13
2018-11-01T21:56:11.045Z,5.33
2018-11-01T21:58:42.310Z,8.67
2018-11-01T22:01:13.208Z,8.90
2018-11-01T22:03:44.637Z,9.57
2018-11-01T22:06:16.229Z,10.03
2018-11-01T22:08:47.141Z,8.87
2018-11-01T22:11:18.892Z,8.90
2018-11-01T22:13:50.218Z,8.67
2018-11-01T22:16:21.189Z,7.57
2018-11-01T22:18:52.118Z,7.70
2018-11-01T22:21:23.413Z,7.07
2018-11-01T22:23:54.779Z,7.23
2018-11-01T22:26:25.788Z,7.57
2018-11-01T22:28:57.015Z,6.70
2018-11-01T22:31:28.230Z,6.77
2018-11-01T22:33:59.224Z,6.77
2018-11-01T22:36:30.470Z,6.63
2018-11-01T22:39:01.701Z,7.10
2018-11-01T22:41:32.963Z,7.63
2018-11-01T22:44:03.871Z,6.80
2018-11-01T22:46:34.811Z,7.10
2018-11-01T22:49:05.727Z,7.63
2018-11-01T22:51:36.918Z,7.00
2018-11-01T22:54:08.060Z,7.47
2018-11-01T22:56:40.455Z,6.70
2018-11-01T22:59:11.694Z,6.57
2018-11-01T23:01:42.630Z,9.80
2018-11-01T23:04:16.061Z,8.77
2018-11-01T23:06:49.559Z,8.70
2018-11-01T23:09:20.836Z,5.93
2018-11-01T23:11:52.255Z,4.90
2018-11-01T23:14:23.792Z,4.53
2018-11-01T23:16:54.793Z,4.63
2018-11-01T23:19:25.729Z,5.87
2018-11-01T23:21:57.522Z,6.07
2018-11-01T23:24:29.496Z,5.20
2018-11-01T23:27:00.927Z,6.20
2018-11-01T23:29:32.112Z,6.43
2018-11-01T23:32:03.784Z,6.60
2018-11-01T23:34:35.367Z,6.87
2018-11-01T23:37:24.276Z,6.20
2018-11-01T23:40:12.596Z,6.10
2018-11-01T23:43:02.307Z,6.13
2018-11-01T23:45:50.314Z,5.80
2018-11-01T23:48:19.975Z,5.80
2018-11-01T23:51:01.688Z,5.40
2018-11-01T23:53:35.301Z,5.57
2018-11-01T23:56:06.315Z,5.60
2018-11-01T23:58:37.296Z,5.73
